San Antonio, Texas
Traffic Map
Current Weather Conditions
San Antonio, Texas
Clear
Clear
83°
Feels Like: 88°
Wind Chill: 83° Ceiling: Unl
Heat Index: 88° Visibility: 10mi
Dew Point: 73° Wind: 10mph
Humidity: 71% Direction: 130° (SE)
Pressure: 30.04in Gusts: 0mph
Raw Report DataKSKF 270258Z AUTO 13009KT 10SM CLR 28/23 A3004 RMK AO2 SLP165 T02830225 53009 $
Traffic Incident Summary
Active as of:
Severity:
Category:
InformationThere was an issue retrieving the traffic information for this location. Please try a different location or try again shortly.
Advertisements
Track Severe Weather on mobile